Time;durP1;ratioP1;P1;durP2;ratioP2;P2;SDS_P1;SDS_P2;PMS_P1;PMS_P2;Temp;Humidity;BMP_temperature;BMP_pressure;BME280_temperature;BME280_humidity;BME280_pressure;Samples;Min_cycle;Max_cycle;Signal;HPM_P1;HPM_P2
2023/08/21 00:01:21;;;;;;;5.68;1.92;;;;;;;21.54;69.45;102033.81;3614701;39;20063;-61
2023/08/21 00:03:46;;;;;;;7.43;2.35;;;;;;;21.51;69.56;102045.91;3617086;39;20498;-61
2023/08/21 00:06:12;;;;;;;6.55;2.50;;;;;;;21.53;69.01;102043.00;3613814;39;20077;-60
2023/08/21 00:08:37;;;;;;;6.68;2.35;;;;;;;21.54;69.69;102059.31;3614908;39;20058;-62
2023/08/21 00:11:03;;;;;;;7.15;2.47;;;;;;;21.58;68.51;102062.63;3611956;39;20054;-62
2023/08/21 00:13:29;;;;;;;7.38;2.40;;;;;;;21.61;68.16;102051.41;3614236;39;20083;-62
2023/08/21 00:15:55;;;;;;;6.70;2.30;;;;;;;21.62;68.20;102039.47;3614456;39;20046;-62
2023/08/21 00:18:21;;;;;;;6.72;2.53;;;;;;;21.61;68.97;102034.13;3613061;39;20077;-62
2023/08/21 00:20:47;;;;;;;5.20;2.20;;;;;;;21.59;68.95;102027.94;3613366;39;20062;-61
2023/08/21 00:23:13;;;;;;;5.32;2.33;;;;;;;21.52;69.68;102030.34;3613190;39;20059;-61
2023/08/21 00:25:38;;;;;;;5.65;2.22;;;;;;;21.48;69.28;102029.75;3612040;39;20367;-62
2023/08/21 00:28:04;;;;;;;5.75;1.90;;;;;;;21.44;69.74;102033.78;3613938;39;20059;-62
2023/08/21 00:30:30;;;;;;;5.28;2.13;;;;;;;21.39;69.57;102029.72;3613657;39;20270;-62
2023/08/21 00:32:56;;;;;;;3.88;1.83;;;;;;;21.34;70.23;102027.34;3612591;39;20065;-62
2023/08/21 00:35:21;;;;;;;6.15;2.25;;;;;;;21.29;70.05;102024.16;3611884;39;20097;-62
2023/08/21 00:37:47;;;;;;;7.22;2.53;;;;;;;21.23;69.88;102030.16;3612617;39;20089;-62
2023/08/21 00:40:13;;;;;;;6.65;2.42;;;;;;;21.18;70.38;102027.81;3615924;39;20065;-61
2023/08/21 00:42:39;;;;;;;7.47;2.50;;;;;;;21.10;71.21;102012.09;3614361;39;20065;-62
2023/08/21 00:45:08;;;;;;;10.32;2.40;;;;;;;20.95;71.92;101994.28;3613988;39;20063;-61
2023/08/21 00:47:35;;;;;;;4.60;2.08;;;;;;;21.10;71.89;102027.66;3612118;39;20069;-62
2023/08/21 00:50:01;;;;;;;7.22;2.47;;;;;;;21.02;71.66;102025.56;3612532;39;20466;-62
2023/08/21 00:52:28;;;;;;;5.63;2.25;;;;;;;21.08;71.49;102035.09;3612780;39;20308;-62
2023/08/21 00:54:55;;;;;;;5.45;2.47;;;;;;;21.06;72.31;102037.97;3614641;39;20059;-63
2023/08/21 00:57:23;;;;;;;6.78;2.30;;;;;;;21.04;72.18;102042.72;3611395;39;20417;-62
2023/08/21 00:59:48;;;;;;;6.68;2.30;;;;;;;21.04;72.01;102037.25;3612527;39;20312;-62
2023/08/21 01:02:14;;;;;;;7.22;2.47;;;;;;;21.04;72.47;102045.44;3611618;39;20083;-62
2023/08/21 01:04:40;;;;;;;5.78;3.17;;;;;;;21.05;71.80;102060.84;3611835;39;20365;-62
2023/08/21 01:07:09;;;;;;;5.90;2.25;;;;;;;21.09;71.72;102059.59;3612712;39;20084;-62
2023/08/21 01:10:02;;;;;;;7.30;2.80;;;;;;;21.11;71.13;102043.03;3613219;39;20058;-62
2023/08/21 01:13:06;;;;;;;7.45;2.42;;;;;;;21.09;71.47;102034.09;3614041;39;20057;-62
2023/08/21 01:15:32;;;;;;;8.10;2.55;;;;;;;21.07;71.64;102034.25;3613398;39;20138;-63
2023/08/21 01:18:00;;;;;;;7.90;2.60;;;;;;;20.94;72.67;102008.97;3613558;39;20050;-63
2023/08/21 01:20:26;;;;;;;5.22;2.30;;;;;;;20.97;72.80;102016.06;3609270;39;21772;-63
2023/08/21 01:22:52;;;;;;;5.97;2.80;;;;;;;20.89;73.13;102013.97;3612839;39;20063;-63
2023/08/21 01:25:18;;;;;;;6.32;2.55;;;;;;;20.83;72.72;102011.75;3612808;39;20078;-63
2023/08/21 01:27:50;;;;;;;5.25;2.30;;;;;;;20.21;73.57;101923.25;3613860;39;20058;-63
2023/08/21 01:30:17;;;;;;;5.47;2.40;;;;;;;20.69;73.04;102012.97;3602865;39;20054;-63
2023/08/21 01:33:05;;;;;;;6.05;2.40;;;;;;;20.59;74.21;102006.56;3613350;39;20573;-63
2023/08/21 01:35:35;;;;;;;5.13;2.55;;;;;;;20.53;74.68;102007.94;3614506;39;20062;-63
2023/08/21 01:38:02;;;;;;;7.47;2.58;;;;;;;20.46;75.32;101998.50;3613434;39;20471;-62
2023/08/21 01:40:28;;;;;;;5.35;2.40;;;;;;;20.47;75.00;102007.56;3612769;39;20053;-62
2023/08/21 01:42:54;;;;;;;5.85;2.67;;;;;;;20.42;75.39;102002.47;3616345;39;20054;-62
2023/08/21 01:45:21;;;;;;;7.13;2.50;;;;;;;20.38;75.54;102004.59;3612263;39;20321;-62
2023/08/21 01:47:47;;;;;;;6.18;2.80;;;;;;;20.33;75.60;101995.97;3611422;39;20059;-62
2023/08/21 01:50:12;;;;;;;4.60;2.53;;;;;;;20.27;75.67;102014.72;3613678;39;20321;-62
2023/08/21 01:52:38;;;;;;;5.45;2.67;;;;;;;20.25;76.06;102017.56;3611375;39;20050;-62
2023/08/21 01:55:07;;;;;;;6.93;2.55;;;;;;;20.23;75.80;102008.63;3611977;39;20054;-62
2023/08/21 01:57:33;;;;;;;6.88;2.78;;;;;;;20.22;75.96;102022.44;3613998;39;20059;-62
2023/08/21 01:59:59;;;;;;;7.53;2.58;;;;;;;20.20;75.24;102025.25;3613161;39;20050;-62
2023/08/21 02:02:24;;;;;;;7.88;2.85;;;;;;;20.17;75.59;102023.69;3613690;39;20054;-62
2023/08/21 02:04:50;;;;;;;7.95;3.25;;;;;;;20.16;75.46;102029.25;3614606;39;20293;-62
2023/08/21 02:07:16;;;;;;;6.53;2.80;;;;;;;20.15;76.34;102031.13;3615040;39;20057;-62
2023/08/21 02:09:41;;;;;;;6.07;3.00;;;;;;;19.93;75.79;101979.31;3611599;39;20066;-63
2023/08/21 02:12:07;;;;;;;5.80;2.90;;;;;;;20.16;76.07;102030.13;3611199;39;20077;-63
2023/08/21 02:14:33;;;;;;;4.38;2.78;;;;;;;20.17;77.04;102036.44;3610827;39;20087;-63
2023/08/21 02:16:58;;;;;;;7.90;2.92;;;;;;;20.16;77.00;102027.38;3612159;39;20585;-63
2023/08/21 02:19:24;;;;;;;7.07;2.83;;;;;;;20.14;76.54;102026.66;3612151;39;20046;-62
2023/08/21 02:21:49;;;;;;;8.32;2.95;;;;;;;20.08;76.71;102027.19;3610983;39;20510;-63
2023/08/21 02:24:15;;;;;;;6.70;2.60;;;;;;;20.10;76.19;102022.44;3612180;39;20058;-62
2023/08/21 02:26:42;;;;;;;7.13;2.88;;;;;;;20.09;76.63;102028.91;3613318;39;20057;-62
2023/08/21 02:29:08;;;;;;;7.75;2.60;;;;;;;20.07;77.02;102019.09;3610159;39;20063;-62
2023/08/21 02:31:34;;;;;;;7.50;3.17;;;;;;;20.05;77.09;102027.44;3611455;39;20070;-63
2023/08/21 02:34:00;;;;;;;5.28;2.90;;;;;;;20.05;77.54;102027.44;3611513;39;20051;-62
2023/08/21 02:36:25;;;;;;;6.38;2.63;;;;;;;19.95;76.29;102010.09;3611984;39;20054;-63
2023/08/21 02:38:51;;;;;;;5.05;2.60;;;;;;;19.99;76.53;102017.03;3614446;39;20643;-63
2023/08/21 02:41:18;;;;;;;7.55;2.72;;;;;;;19.97;77.28;102016.28;3611962;39;20242;-62
2023/08/21 02:43:44;;;;;;;6.07;3.15;;;;;;;19.94;77.02;102021.97;3613011;39;20051;-62
2023/08/21 02:46:09;;;;;;;7.63;2.50;;;;;;;19.90;77.69;102018.63;3612864;39;20131;-63
2023/08/21 02:48:35;;;;;;;9.25;3.08;;;;;;;19.88;77.33;102020.63;3610910;39;20141;-62
2023/08/21 02:51:02;;;;;;;5.55;2.65;;;;;;;19.83;78.26;102019.28;3611422;39;20062;-63
2023/08/21 02:53:28;;;;;;;6.20;2.60;;;;;;;19.80;77.93;102017.66;3611626;39;20317;-63
2023/08/21 02:55:54;;;;;;;5.47;2.47;;;;;;;19.81;78.40;102021.25;3611301;39;20061;-63
2023/08/21 02:58:19;;;;;;;6.18;2.90;;;;;;;19.79;78.13;102028.69;3612247;39;20094;-62
2023/08/21 03:00:45;;;;;;;4.38;2.65;;;;;;;19.77;78.19;102017.06;3612055;39;20059;-62
2023/08/21 03:03:11;;;;;;;6.45;3.08;;;;;;;19.75;77.91;102019.88;3611951;39;20051;-62
2023/08/21 03:05:36;;;;;;;8.27;3.22;;;;;;;19.72;78.23;102022.88;3610397;39;20055;-62
2023/08/21 03:08:02;;;;;;;8.50;3.33;;;;;;;19.54;78.11;101995.22;3612624;39;20050;-63
2023/08/21 03:10:33;;;;;;;7.05;3.25;;;;;;;19.69;78.22;102020.38;3610626;39;20066;-63
2023/08/21 03:12:59;;;;;;;8.43;3.42;;;;;;;19.65;78.97;102014.31;3611244;39;20282;-63
2023/08/21 03:15:24;;;;;;;5.80;3.40;;;;;;;19.60;79.45;102011.09;3612484;39;20108;-62
2023/08/21 03:17:50;;;;;;;6.85;3.35;;;;;;;19.58;79.61;102023.09;3611509;39;20062;-63
2023/08/21 03:20:17;;;;;;;5.57;3.90;;;;;;;19.51;79.82;102016.41;3614263;39;20392;-63
2023/08/21 03:22:43;;;;;;;7.88;4.22;;;;;;;19.52;79.64;102020.88;3611702;39;20379;-62
2023/08/21 03:25:09;;;;;;;8.20;3.70;;;;;;;19.50;79.58;102029.16;3613279;39;20063;-63
2023/08/21 03:27:39;;;;;;;8.23;3.90;;;;;;;19.44;80.32;102022.38;3616815;39;20845;-63
2023/08/21 03:30:06;;;;;;;7.35;4.00;;;;;;;19.39;80.80;102021.00;3613193;39;20059;-62
2023/08/21 03:32:33;;;;;;;8.55;3.95;;;;;;;19.37;81.35;102029.28;3613101;39;20371;-62
2023/08/21 03:34:59;;;;;;;6.65;3.60;;;;;;;19.34;81.31;102036.84;3613045;39;20098;-63
2023/08/21 03:37:24;;;;;;;7.15;4.07;;;;;;;19.29;80.67;102033.63;3612876;39;20278;-63
2023/08/21 03:39:50;;;;;;;7.85;3.75;;;;;;;19.24;80.72;102026.66;3613441;39;20047;-63
2023/08/21 03:42:16;;;;;;;7.28;3.80;;;;;;;19.22;81.37;102028.66;3613675;39;20091;-63
2023/08/21 03:44:41;;;;;;;9.13;4.05;;;;;;;19.12;80.96;102011.28;3614020;39;20453;-63
2023/08/21 03:47:08;;;;;;;8.00;3.65;;;;;;;19.04;80.86;102002.00;3615559;39;20062;-63
2023/08/21 03:49:33;;;;;;;11.80;3.80;;;;;;;19.14;81.11;102022.94;3611644;39;20139;-63
2023/08/21 03:51:59;;;;;;;14.25;3.80;;;;;;;19.12;81.21;102022.19;3613991;39;20055;-63
2023/08/21 03:54:24;;;;;;;6.15;3.95;;;;;;;19.07;81.91;102021.69;3614359;39;20047;-62
2023/08/21 03:56:50;;;;;;;8.00;4.00;;;;;;;19.07;81.55;102029.88;3611110;39;20050;-64
2023/08/21 03:59:16;;;;;;;11.40;4.13;;;;;;;19.07;81.40;102029.88;3612869;39;20105;-63
2023/08/21 04:01:41;;;;;;;7.88;3.45;;;;;;;19.07;82.00;102018.97;3613601;39;20071;-64
2023/08/21 04:04:07;;;;;;;7.60;4.00;;;;;;;19.06;81.37;102017.25;3617119;39;20065;-64
2023/08/21 04:06:32;;;;;;;7.07;3.63;;;;;;;19.03;82.26;102012.03;3613377;39;20538;-64
2023/08/21 04:08:58;;;;;;;9.45;3.75;;;;;;;19.03;82.83;102017.47;3612990;39;20057;-63
2023/08/21 04:11:24;;;;;;;5.88;3.60;;;;;;;18.89;82.38;101993.16;3612063;39;20112;-62
2023/08/21 04:13:49;;;;;;;9.90;3.95;;;;;;;18.99;81.40;102022.28;3614758;39;20051;-62
2023/08/21 04:16:17;;;;;;;6.50;3.65;;;;;;;18.97;82.51;102021.56;3612008;39;20513;-62
2023/08/21 04:18:43;;;;;;;8.40;3.83;;;;;;;19.00;81.63;102028.63;3616749;39;20313;-63
2023/08/21 04:21:09;;;;;;;6.32;3.20;;;;;;;19.01;82.15;102041.25;3614621;39;20077;-62
2023/08/21 04:23:36;;;;;;;6.85;3.60;;;;;;;19.04;82.47;102045.59;3613369;39;20061;-63
2023/08/21 04:26:03;;;;;;;8.40;3.80;;;;;;;19.02;82.32;102042.97;3614688;39;20465;-62
2023/08/21 04:28:33;;;;;;;10.02;4.10;;;;;;;19.09;82.68;102048.81;3617108;39;20102;-61
2023/08/21 04:30:59;;;;;;;11.48;4.03;;;;;;;19.17;81.43;102051.81;3617487;39;20276;-63
2023/08/21 04:33:27;;;;;;;10.02;4.43;;;;;;;19.19;81.68;102045.25;3615059;39;20134;-63
2023/08/21 04:35:53;;;;;;;9.10;3.78;;;;;;;19.20;82.44;102054.31;3616015;39;20054;-62
2023/08/21 04:38:19;;;;;;;6.53;3.28;;;;;;;19.20;82.82;102047.00;3616165;39;20082;-63
2023/08/21 04:40:45;;;;;;;5.90;3.60;;;;;;;19.26;82.55;102048.38;3606533;39;20054;-63
2023/08/21 04:43:10;;;;;;;7.60;3.58;;;;;;;19.30;82.35;102049.00;3614046;39;20058;-62
2023/08/21 04:45:37;;;;;;;7.70;4.20;;;;;;;19.35;82.07;102054.97;3614762;39;20081;-63
2023/08/21 04:48:05;;;;;;;15.93;4.20;;;;;;;19.36;82.47;102056.69;3618263;39;20380;-62
2023/08/21 04:50:30;;;;;;;10.13;4.15;;;;;;;19.35;82.06;102065.88;3614180;39;20093;-62
2023/08/21 04:52:56;;;;;;;7.85;4.10;;;;;;;19.36;81.96;102056.69;3616972;39;20429;-63
2023/08/21 04:55:22;;;;;;;8.27;4.07;;;;;;;19.37;82.00;102053.81;3619476;39;20057;-62
2023/08/21 04:57:47;;;;;;;8.48;4.38;;;;;;;19.34;82.29;102064.09;3614110;39;20400;-63
2023/08/21 05:00:15;;;;;;;5.22;3.50;;;;;;;19.36;81.98;102063.00;3615752;39;20118;-62
2023/08/21 05:02:41;;;;;;;7.57;3.92;;;;;;;19.39;81.12;102061.91;3613562;39;20087;-62
2023/08/21 05:05:08;;;;;;;8.70;4.00;;;;;;;19.38;81.86;102061.03;3615419;39;20051;-63
2023/08/21 05:07:35;;;;;;;7.45;4.03;;;;;;;19.38;81.96;102065.63;3616265;39;20055;-63
2023/08/21 05:10:01;;;;;;;6.60;4.00;;;;;;;19.37;81.50;102063.88;3612074;39;20047;-62
2023/08/21 05:12:27;;;;;;;7.75;4.25;;;;;;;19.35;81.34;102065.88;3614571;39;20416;-63
2023/08/21 05:14:53;;;;;;;8.15;3.78;;;;;;;19.36;81.65;102073.03;3615407;39;20042;-62
2023/08/21 05:17:19;;;;;;;10.63;4.05;;;;;;;19.34;82.29;102075.88;3615544;39;20051;-63
2023/08/21 05:19:45;;;;;;;6.53;4.40;;;;;;;19.37;82.12;102074.78;3615564;39;20060;-63
2023/08/21 05:22:10;;;;;;;7.10;3.92;;;;;;;19.24;82.19;102048.47;3614990;39;20053;-63
2023/08/21 05:24:36;;;;;;;7.88;3.95;;;;;;;19.39;81.90;102076.41;3613149;39;20070;-63
2023/08/21 05:27:01;;;;;;;9.25;4.07;;;;;;;19.35;82.22;102077.63;3609335;39;20050;-63
2023/08/21 05:29:27;;;;;;;9.43;4.18;;;;;;;19.33;83.19;102073.28;3614581;39;20050;-63
2023/08/21 05:31:53;;;;;;;7.85;4.35;;;;;;;19.43;82.56;102085.19;3611065;39;20118;-63
2023/08/21 05:34:18;;;;;;;20.60;4.32;;;;;;;19.46;82.34;102083.09;3610750;39;20059;-63
2023/08/21 05:36:44;;;;;;;10.02;4.75;;;;;;;19.49;83.06;102084.72;3602741;39;20069;-63
2023/08/21 05:39:10;;;;;;;8.73;4.28;;;;;;;19.53;82.68;102090.78;3613696;39;20050;-63
2023/08/21 05:41:35;;;;;;;7.95;4.47;;;;;;;19.57;82.21;102095.91;3611557;39;20138;-64
2023/08/21 05:44:01;;;;;;;9.40;4.63;;;;;;;19.60;81.89;102087.47;3615013;39;20051;-64
2023/08/21 05:46:26;;;;;;;7.93;4.22;;;;;;;19.64;81.57;102083.53;3615710;39;20400;-64
2023/08/21 05:48:52;;;;;;;10.63;5.10;;;;;;;19.64;82.02;102078.06;3615921;39;20089;-64
2023/08/21 05:51:18;;;;;;;8.02;4.55;;;;;;;19.67;81.54;102079.69;3616095;39;20046;-64
2023/08/21 05:53:43;;;;;;;12.05;4.68;;;;;;;19.71;82.20;102083.91;3616955;39;20054;-64
2023/08/21 05:56:09;;;;;;;6.32;4.25;;;;;;;19.75;82.09;102085.38;3619370;39;20790;-64
2023/08/21 05:58:34;;;;;;;10.18;4.40;;;;;;;19.64;81.41;102056.25;3612702;39;20309;-64
2023/08/21 06:01:00;;;;;;;8.07;4.50;;;;;;;19.81;81.85;102084.88;3614001;39;20401;-64
2023/08/21 06:03:26;;;;;;;8.40;4.57;;;;;;;19.88;81.17;102088.84;3616710;39;20057;-64
2023/08/21 06:05:52;;;;;;;7.35;4.63;;;;;;;19.94;80.94;102098.41;3615421;39;20057;-64
2023/08/21 06:08:18;;;;;;;9.32;4.82;;;;;;;19.97;80.71;102089.97;3615495;39;20073;-64
2023/08/21 06:10:44;;;;;;;8.43;4.85;;;;;;;20.03;80.46;102100.38;3614994;39;20049;-64
2023/08/21 06:13:09;;;;;;;8.07;4.85;;;;;;;20.08;80.77;102091.84;3614356;39;20304;-64
2023/08/21 06:15:35;;;;;;;8.70;4.80;;;;;;;20.11;80.23;102103.38;3615895;39;20057;-63
2023/08/21 06:18:01;;;;;;;9.20;5.38;;;;;;;20.18;80.37;102104.59;3607580;39;20449;-64
2023/08/21 06:20:27;;;;;;;8.48;5.35;;;;;;;20.20;80.26;102104.44;3614308;39;20140;-64
2023/08/21 06:22:52;;;;;;;9.20;5.15;;;;;;;20.23;80.19;102106.94;3617148;39;20050;-64
2023/08/21 06:25:19;;;;;;;7.95;5.32;;;;;;;20.28;80.08;102106.56;3613342;39;20050;-64
2023/08/21 06:27:45;;;;;;;10.15;5.55;;;;;;;20.36;79.47;102113.13;3612802;39;20046;-64
2023/08/21 06:30:11;;;;;;;10.57;5.40;;;;;;;20.43;78.44;102110.75;3613424;39;20047;-63
2023/08/21 06:32:36;;;;;;;9.52;4.85;;;;;;;20.53;77.93;102109.03;3613945;39;20059;-64
2023/08/21 06:35:02;;;;;;;10.35;5.30;;;;;;;20.63;77.74;102109.13;3617655;39;20046;-67
2023/08/21 06:37:28;;;;;;;10.43;4.90;;;;;;;20.72;77.83;102113.81;3612321;39;20070;-67
2023/08/21 06:39:53;;;;;;;8.68;5.47;;;;;;;20.80;77.23;102119.47;3613079;39;20071;-67
2023/08/21 06:42:19;;;;;;;9.15;5.30;;;;;;;20.84;76.60;102115.50;3613152;39;20062;-67
2023/08/21 06:44:45;;;;;;;8.57;4.68;;;;;;;20.95;75.98;102114.56;3614343;39;20050;-67
2023/08/21 06:47:10;;;;;;;9.55;4.85;;;;;;;21.08;76.39;102115.25;3615019;39;20060;-67
2023/08/21 06:49:36;;;;;;;8.43;4.97;;;;;;;21.18;74.90;102114.47;3611147;39;20680;-67
2023/08/21 06:52:03;;;;;;;7.47;5.13;;;;;;;21.25;73.86;102115.66;3613062;39;20046;-67
2023/08/21 06:54:29;;;;;;;8.05;4.97;;;;;;;21.29;73.94;102119.88;3612054;39;20100;-67
2023/08/21 06:56:54;;;;;;;17.60;10.65;;;;;;;21.38;73.78;102116.38;3614984;39;20137;-67
2023/08/21 06:59:20;;;;;;;8.35;5.03;;;;;;;21.43;72.73;102114.09;3613230;39;20063;-67
2023/08/21 07:01:46;;;;;;;9.85;4.63;;;;;;;21.49;73.46;102115.44;3614847;39;20061;-68
2023/08/21 07:04:11;;;;;;;11.57;4.70;;;;;;;21.51;72.65;102117.03;3616978;39;20061;-68
2023/08/21 07:06:37;;;;;;;6.63;4.05;;;;;;;21.68;72.06;102117.41;3614902;39;20050;-67
2023/08/21 07:09:03;;;;;;;8.00;4.78;;;;;;;21.81;71.28;102123.53;3619291;39;20050;-67
2023/08/21 07:11:28;;;;;;;11.13;4.82;;;;;;;21.91;71.66;102113.50;3612479;39;20049;-68
2023/08/21 07:13:54;;;;;;;9.45;4.30;;;;;;;22.02;69.93;102118.88;3614704;39;20063;-67
2023/08/21 07:16:20;;;;;;;7.63;4.57;;;;;;;22.11;69.74;102116.34;3615267;39;20057;-67
2023/08/21 07:18:46;;;;;;;9.85;4.57;;;;;;;22.21;67.25;102128.22;3615857;39;20060;-67
2023/08/21 07:21:11;;;;;;;11.02;4.70;;;;;;;22.23;68.01;102126.19;3613915;39;20058;-65
2023/08/21 07:23:37;;;;;;;8.27;4.95;;;;;;;22.26;68.30;102123.16;3615473;39;20053;-64
2023/08/21 07:26:04;;;;;;;8.13;5.00;;;;;;;22.36;68.54;102124.09;3613249;39;20405;-64
2023/08/21 07:28:30;;;;;;;9.23;4.00;;;;;;;22.53;67.98;102108.81;3614082;39;20056;-64
2023/08/21 07:30:58;;;;;;;7.00;3.70;;;;;;;22.62;65.10;102113.44;3619059;39;20058;-64
2023/08/21 07:33:25;;;;;;;7.00;3.92;;;;;;;22.58;64.30;102073.66;3613781;39;20047;-64
2023/08/21 07:36:05;;;;;;;7.88;3.50;;;;;;;22.88;64.16;102097.31;3613589;39;20062;-64
2023/08/21 07:38:32;;;;;;;6.75;3.47;;;;;;;23.12;63.55;102121.59;3613745;39;20050;-66
2023/08/21 07:41:10;;;;;;;7.93;3.60;;;;;;;23.31;62.60;102125.31;3612682;39;20163;-66
2023/08/21 07:43:42;;;;;;;8.32;3.78;;;;;;;23.52;61.84;102122.38;3615098;39;20054;-66
2023/08/21 07:46:18;;;;;;;6.20;3.55;;;;;;;23.69;61.92;102126.28;3615473;39;20073;-66
2023/08/21 07:48:49;;;;;;;26.05;20.00;;;;;;;23.88;59.34;102130.84;3614256;39;20074;-66
2023/08/21 07:51:15;;;;;;;5.38;2.97;;;;;;;24.00;58.82;102122.25;3614104;39;20051;-66
2023/08/21 07:53:41;;;;;;;4.20;2.70;;;;;;;24.13;55.93;102130.16;3613679;39;20054;-66
2023/08/21 07:56:07;;;;;;;6.68;2.50;;;;;;;24.18;57.67;102122.31;3616619;39;20329;-66
2023/08/21 07:58:33;;;;;;;8.27;3.05;;;;;;;24.23;57.57;102122.75;3616600;39;20066;-64
2023/08/21 08:01:00;;;;;;;5.90;2.60;;;;;;;24.42;56.95;102131.91;3611974;39;20066;-65
2023/08/21 08:03:25;;;;;;;7.90;2.63;;;;;;;24.51;54.87;102133.72;3614637;39;20051;-65
2023/08/21 08:05:51;;;;;;;5.50;2.72;;;;;;;24.62;55.60;102138.16;3612183;39;20602;-66
2023/08/21 08:08:17;;;;;;;10.23;3.00;;;;;;;24.66;54.40;102140.44;3613320;39;20066;-67
2023/08/21 08:10:44;;;;;;;7.38;2.60;;;;;;;24.79;52.87;102134.56;3612594;39;20051;-65
2023/08/21 08:13:10;;;;;;;4.70;2.50;;;;;;;24.88;53.11;102133.63;3618045;39;20350;-65
2023/08/21 08:15:35;;;;;;;5.93;2.25;;;;;;;24.88;53.32;102128.13;3616842;39;20061;-65
2023/08/21 08:18:05;;;;;;;5.82;2.50;;;;;;;25.02;53.72;102140.44;3603357;39;20058;-65
2023/08/21 08:20:31;;;;;;;5.30;2.75;;;;;;;25.09;53.91;102133.31;3612583;39;20147;-66
2023/08/21 08:22:57;;;;;;;6.88;2.20;;;;;;;25.22;53.54;102139.31;3613432;39;20480;-66
2023/08/21 08:25:23;;;;;;;5.10;2.53;;;;;;;25.38;51.68;102146.84;3615343;39;20053;-65
2023/08/21 08:27:48;;;;;;;7.57;2.78;;;;;;;25.41;51.42;102142.91;3611789;39;20054;-65
2023/08/21 08:30:15;;;;;;;3.83;1.60;;;;;;;25.48;51.61;102146.72;3617616;39;20077;-65
2023/08/21 08:32:44;;;;;;;5.82;2.22;;;;;;;25.53;51.79;102143.47;3613300;39;20047;-66
2023/08/21 08:35:14;;;;;;;7.88;2.80;;;;;;;25.73;52.30;102144.16;3618919;39;20046;-66
2023/08/21 08:37:43;;;;;;;5.88;2.25;;;;;;;25.88;51.12;102137.03;3616746;39;20042;-66
2023/08/21 08:40:11;;;;;;;7.00;2.97;;;;;;;26.05;51.18;102147.13;3614514;39;20051;-66
2023/08/21 08:42:38;;;;;;;5.10;2.47;;;;;;;26.31;51.43;102143.44;3616491;39;20086;-66
2023/08/21 08:45:05;;;;;;;5.13;2.40;;;;;;;26.46;49.90;102133.50;3618525;39;20047;-66
2023/08/21 08:47:35;;;;;;;5.30;1.83;;;;;;;26.63;48.44;102138.06;3617377;39;20055;-66
2023/08/21 08:50:06;;;;;;;3.83;1.67;;;;;;;26.69;48.69;102141.19;3615470;39;20095;-66
2023/08/21 08:52:39;;;;;;;4.80;2.10;;;;;;;26.57;48.58;102149.75;3614908;39;20047;-65
2023/08/21 08:55:09;;;;;;;5.50;2.47;;;;;;;26.36;49.73;102110.75;3618359;39;20042;-64
2023/08/21 08:57:35;;;;;;;6.22;1.98;;;;;;;26.46;48.46;102136.28;3614897;39;20273;-66
2023/08/21 09:00:05;;;;;;;6.40;2.13;;;;;;;26.36;49.24;102150.19;3615413;39;20051;-64
2023/08/21 09:02:31;;;;;;;5.47;1.90;;;;;;;26.24;48.44;102153.41;3613976;39;20121;-65
2023/08/21 09:04:57;;;;;;;6.18;1.92;;;;;;;26.30;49.31;102155.50;3615511;39;20183;-64
2023/08/21 09:07:22;;;;;;;3.50;1.80;;;;;;;26.35;50.16;102144.84;3618694;39;20055;-65
2023/08/21 09:09:50;;;;;;;4.55;2.22;;;;;;;26.31;48.50;102137.94;3615571;39;20058;-66
2023/08/21 09:12:17;;;;;;;6.65;2.17;;;;;;;26.38;47.93;102128.81;3611473;39;20147;-65
2023/08/21 09:14:45;;;;;;;3.70;1.48;;;;;;;26.65;47.44;102135.16;3614877;39;20059;-65
2023/08/21 09:17:11;;;;;;;5.85;1.77;;;;;;;26.98;47.79;102136.06;3617632;39;20054;-65
2023/08/21 09:19:38;;;;;;;5.53;2.20;;;;;;;27.07;47.15;102148.84;3614844;39;20370;-65
2023/08/21 09:22:17;;;;;;;4.60;1.90;;;;;;;26.96;48.23;102134.50;3613816;39;20157;-67
2023/08/21 09:25:07;;;;;;;6.55;1.95;;;;;;;27.01;46.66;102127.44;3617299;39;20039;-65
2023/08/21 09:27:35;;;;;;;4.65;1.92;;;;;;;27.26;44.77;102138.53;3612426;39;20382;-66
2023/08/21 09:30:09;;;;;;;5.03;1.60;;;;;;;27.42;48.08;102132.13;3615598;39;20081;-65
2023/08/21 09:32:57;;;;;;;7.63;1.92;;;;;;;27.70;47.02;102140.91;3615297;39;20385;-65
2023/08/21 09:35:24;;;;;;;7.75;2.40;;;;;;;27.87;46.97;102133.44;3618416;39;20055;-65
2023/08/21 09:37:52;;;;;;;4.10;1.70;;;;;;;28.07;45.06;102133.91;3612322;39;20046;-65
2023/08/21 09:40:20;;;;;;;6.68;2.03;;;;;;;28.18;44.70;102112.25;3612860;39;20398;-65
2023/08/21 09:42:45;;;;;;;5.53;1.75;;;;;;;28.44;43.19;102128.56;3617672;39;20497;-65
2023/08/21 09:45:11;;;;;;;6.05;1.58;;;;;;;28.62;42.32;102136.63;3612849;39;20083;-66
2023/08/21 09:47:39;;;;;;;5.20;1.35;;;;;;;28.80;42.63;102128.03;3616870;39;20054;-66
2023/08/21 09:50:06;;;;;;;6.30;1.60;;;;;;;28.68;43.06;102104.59;3614865;39;20058;-65
2023/08/21 09:52:32;;;;;;;5.78;1.90;;;;;;;28.89;42.17;102126.94;3617049;39;20046;-65
2023/08/21 09:55:03;;;;;;;4.78;1.60;;;;;;;29.10;40.65;102133.72;3613325;39;20074;-65
2023/08/21 09:57:31;;;;;;;7.18;1.55;;;;;;;29.26;42.10;102122.50;3614714;39;20150;-65
2023/08/21 10:00:01;;;;;;;5.65;1.48;;;;;;;29.43;42.16;102130.66;3615017;39;20062;-66
2023/08/21 10:02:29;;;;;;;4.40;1.83;;;;;;;29.64;43.23;102122.50;3617984;39;20058;-66
2023/08/21 10:04:56;;;;;;;3.85;1.70;;;;;;;29.70;42.69;102137.53;3613125;39;20066;-65
2023/08/21 10:07:28;;;;;;;4.28;1.80;;;;;;;29.55;42.29;102104.22;3612862;39;20045;-65
2023/08/21 10:09:56;;;;;;;4.20;1.58;;;;;;;29.86;41.60;102125.41;3610344;39;20099;-65
2023/08/21 10:12:23;;;;;;;3.35;1.50;;;;;;;29.55;40.07;102105.06;3613730;39;20396;-65
2023/08/21 10:14:49;;;;;;;4.72;1.50;;;;;;;29.54;42.15;102116.34;3611736;39;20084;-65
2023/08/21 10:17:15;;;;;;;4.53;1.30;;;;;;;29.61;42.01;102114.56;3616318;39;20059;-64
2023/08/21 10:19:40;;;;;;;5.10;1.50;;;;;;;29.76;41.87;102101.59;3616723;39;20262;-64
2023/08/21 10:22:06;;;;;;;4.53;1.42;;;;;;;30.03;39.61;102111.13;3614105;39;20057;-65
2023/08/21 10:24:38;;;;;;;4.65;1.70;;;;;;;30.14;38.66;102114.50;3615316;39;20400;-64
2023/08/21 10:27:03;;;;;;;3.72;1.48;;;;;;;30.21;37.45;102113.53;3614211;39;20143;-64
2023/08/21 10:29:31;;;;;;;2.83;1.15;;;;;;;30.36;36.68;102118.22;3618742;39;20600;-64
2023/08/21 10:32:05;;;;;;;2.40;1.00;;;;;;;30.40;37.97;102105.66;3612001;39;20077;-64
2023/08/21 10:34:40;;;;;;;5.88;1.88;;;;;;;30.38;40.16;102111.41;3615743;39;20366;-64
2023/08/21 10:37:12;;;;;;;5.22;1.73;;;;;;;30.41;37.27;102113.78;3617065;39;20051;-64
2023/08/21 10:39:52;;;;;;;3.28;1.40;;;;;;;30.58;41.84;102106.09;3615236;39;20130;-64
2023/08/21 10:42:18;;;;;;;5.07;1.35;;;;;;;30.65;37.91;102107.03;3616707;39;20122;-65
2023/08/21 10:44:48;;;;;;;2.67;1.30;;;;;;;30.77;38.53;102104.63;3616713;39;20089;-64
2023/08/21 10:47:35;;;;;;;4.72;1.20;;;;;;;30.98;37.04;102098.19;3616251;39;20285;-66
2023/08/21 10:50:06;;;;;;;5.13;1.23;;;;;;;31.07;37.50;102110.91;3616780;39;20126;-65
2023/08/21 10:52:45;;;;;;;4.90;1.42;;;;;;;31.01;36.51;102108.06;3618175;39;20375;-65
2023/08/21 10:55:13;;;;;;;3.65;1.38;;;;;;;31.01;36.29;102106.13;3614400;39;20054;-65
2023/08/21 10:57:42;;;;;;;3.38;1.75;;;;;;;30.73;38.58;102114.38;3616065;39;20368;-65
2023/08/21 11:00:12;;;;;;;3.28;1.50;;;;;;;30.51;38.94;102110.69;3613234;39;20050;-65
2023/08/21 11:02:42;;;;;;;3.53;1.50;;;;;;;30.19;38.31;102117.53;3616344;39;20123;-65
2023/08/21 11:05:10;;;;;;;2.58;1.05;;;;;;;29.81;38.54;102120.41;3614665;39;20130;-65
2023/08/21 11:07:45;;;;;;;3.90;1.35;;;;;;;29.44;39.19;102110.22;3614495;39;20127;-65
2023/08/21 11:10:17;;;;;;;2.78;1.23;;;;;;;29.41;41.20;102113.38;3614946;39;20046;-65
2023/08/21 11:12:55;;;;;;;5.23;1.80;;;;;;;29.71;40.03;102114.28;3615052;39;20051;-65
2023/08/21 11:15:22;;;;;;;4.75;1.67;;;;;;;29.95;39.50;102115.94;3620197;39;20300;-65
2023/08/21 11:18:03;;;;;;;4.95;1.45;;;;;;;29.79;38.10;102112.28;3614989;39;20051;-66
2023/08/21 11:20:34;;;;;;;3.13;1.33;;;;;;;30.08;37.16;102099.47;3616482;39;20046;-64
2023/08/21 11:23:06;;;;;;;2.40;1.23;;;;;;;30.53;37.45;102097.50;3613961;39;20124;-64
2023/08/21 11:25:33;;;;;;;3.85;1.35;;;;;;;30.77;37.82;102096.31;3620288;39;20386;-64